sensor_id;sensor_type;location;lat;lon;timestamp;P1;durP1;ratioP1;P2;durP2;ratioP2
23181;SDS011;11759;51.282;6.642;2023-02-20T00:00:47;20.48;;;9.38;;
23181;SDS011;11759;51.282;6.642;2023-02-20T00:03:14;24.88;;;10.43;;
23181;SDS011;11759;51.282;6.642;2023-02-20T00:05:41;29.30;;;10.57;;
23181;SDS011;11759;51.282;6.642;2023-02-20T00:08:08;20.65;;;9.07;;
23181;SDS011;11759;51.282;6.642;2023-02-20T00:10:35;22.67;;;9.00;;
23181;SDS011;11759;51.282;6.642;2023-02-20T00:13:02;20.60;;;9.32;;
23181;SDS011;11759;51.282;6.642;2023-02-20T00:15:28;22.75;;;9.57;;
23181;SDS011;11759;51.282;6.642;2023-02-20T00:17:55;26.70;;;10.45;;
23181;SDS011;11759;51.282;6.642;2023-02-20T00:20:23;23.63;;;10.93;;
23181;SDS011;11759;51.282;6.642;2023-02-20T00:22:50;25.60;;;10.38;;
23181;SDS011;11759;51.282;6.642;2023-02-20T00:25:18;24.85;;;10.07;;
23181;SDS011;11759;51.282;6.642;2023-02-20T00:27:45;27.45;;;10.80;;
23181;SDS011;11759;51.282;6.642;2023-02-20T00:30:16;25.52;;;10.18;;
23181;SDS011;11759;51.282;6.642;2023-02-20T00:32:45;31.67;;;12.00;;
23181;SDS011;11759;51.282;6.642;2023-02-20T00:35:13;30.25;;;10.80;;
23181;SDS011;11759;51.282;6.642;2023-02-20T00:37:41;30.08;;;11.63;;
23181;SDS011;11759;51.282;6.642;2023-02-20T00:40:10;28.77;;;11.63;;
23181;SDS011;11759;51.282;6.642;2023-02-20T00:42:37;28.20;;;11.27;;
23181;SDS011;11759;51.282;6.642;2023-02-20T00:45:04;26.92;;;11.77;;
23181;SDS011;11759;51.282;6.642;2023-02-20T00:47:31;32.17;;;12.35;;
23181;SDS011;11759;51.282;6.642;2023-02-20T00:49:58;29.60;;;12.52;;
23181;SDS011;11759;51.282;6.642;2023-02-20T00:52:25;30.30;;;11.43;;
23181;SDS011;11759;51.282;6.642;2023-02-20T00:54:52;33.70;;;13.38;;
23181;SDS011;11759;51.282;6.642;2023-02-20T00:57:18;27.95;;;12.00;;
23181;SDS011;11759;51.282;6.642;2023-02-20T00:59:45;26.50;;;12.15;;
23181;SDS011;11759;51.282;6.642;2023-02-20T01:02:11;31.65;;;13.13;;
23181;SDS011;11759;51.282;6.642;2023-02-20T01:04:38;25.70;;;12.15;;
23181;SDS011;11759;51.282;6.642;2023-02-20T01:07:05;29.80;;;12.07;;
23181;SDS011;11759;51.282;6.642;2023-02-20T01:09:32;32.78;;;12.27;;
23181;SDS011;11759;51.282;6.642;2023-02-20T01:11:58;34.55;;;12.13;;
23181;SDS011;11759;51.282;6.642;2023-02-20T01:14:26;28.20;;;11.50;;
23181;SDS011;11759;51.282;6.642;2023-02-20T01:16:53;33.30;;;12.32;;
23181;SDS011;11759;51.282;6.642;2023-02-20T01:19:20;38.42;;;13.57;;
23181;SDS011;11759;51.282;6.642;2023-02-20T01:21:48;32.08;;;12.77;;
23181;SDS011;11759;51.282;6.642;2023-02-20T01:24:16;41.80;;;14.32;;
23181;SDS011;11759;51.282;6.642;2023-02-20T01:26:46;34.25;;;14.30;;
23181;SDS011;11759;51.282;6.642;2023-02-20T01:29:13;32.17;;;13.18;;
23181;SDS011;11759;51.282;6.642;2023-02-20T01:31:45;31.35;;;12.73;;
23181;SDS011;11759;51.282;6.642;2023-02-20T01:34:14;33.75;;;13.40;;
23181;SDS011;11759;51.282;6.642;2023-02-20T01:36:45;32.08;;;14.07;;
23181;SDS011;11759;51.282;6.642;2023-02-20T01:39:15;41.83;;;15.38;;
23181;SDS011;11759;51.282;6.642;2023-02-20T01:41:43;36.33;;;13.93;;
23181;SDS011;11759;51.282;6.642;2023-02-20T01:44:19;33.28;;;14.68;;
23181;SDS011;11759;51.282;6.642;2023-02-20T01:46:52;33.33;;;13.57;;
23181;SDS011;11759;51.282;6.642;2023-02-20T01:49:23;31.50;;;13.10;;
23181;SDS011;11759;51.282;6.642;2023-02-20T01:51:54;30.70;;;13.25;;
23181;SDS011;11759;51.282;6.642;2023-02-20T01:54:24;33.28;;;13.20;;
23181;SDS011;11759;51.282;6.642;2023-02-20T01:56:52;33.08;;;13.02;;
23181;SDS011;11759;51.282;6.642;2023-02-20T01:59:20;32.88;;;12.93;;
23181;SDS011;11759;51.282;6.642;2023-02-20T02:01:47;31.35;;;13.00;;
23181;SDS011;11759;51.282;6.642;2023-02-20T02:04:14;30.33;;;13.48;;
23181;SDS011;11759;51.282;6.642;2023-02-20T02:06:42;34.08;;;14.45;;
23181;SDS011;11759;51.282;6.642;2023-02-20T02:12:15;40.58;;;16.23;;
23181;SDS011;11759;51.282;6.642;2023-02-20T02:14:42;45.55;;;16.38;;
23181;SDS011;11759;51.282;6.642;2023-02-20T02:17:24;38.33;;;14.65;;
23181;SDS011;11759;51.282;6.642;2023-02-20T02:33:56;39.25;;;15.35;;
23181;SDS011;11759;51.282;6.642;2023-02-20T02:39:46;41.30;;;16.00;;
23181;SDS011;11759;51.282;6.642;2023-02-20T02:47:59;48.45;;;16.15;;
23181;SDS011;11759;51.282;6.642;2023-02-20T02:50:28;40.75;;;13.88;;
23181;SDS011;11759;51.282;6.642;2023-02-20T02:52:59;43.63;;;15.05;;
23181;SDS011;11759;51.282;6.642;2023-02-20T02:55:28;35.65;;;13.82;;
23181;SDS011;11759;51.282;6.642;2023-02-20T02:57:56;39.58;;;14.95;;
23181;SDS011;11759;51.282;6.642;2023-02-20T03:00:27;40.25;;;15.13;;
23181;SDS011;11759;51.282;6.642;2023-02-20T03:03:06;41.28;;;15.07;;
23181;SDS011;11759;51.282;6.642;2023-02-20T03:05:37;36.33;;;13.27;;
23181;SDS011;11759;51.282;6.642;2023-02-20T03:08:17;36.05;;;13.32;;
23181;SDS011;11759;51.282;6.642;2023-02-20T03:11:04;39.40;;;13.23;;
23181;SDS011;11759;51.282;6.642;2023-02-20T03:13:50;39.47;;;13.95;;
23181;SDS011;11759;51.282;6.642;2023-02-20T03:16:44;35.00;;;13.95;;
23181;SDS011;11759;51.282;6.642;2023-02-20T03:19:19;34.85;;;13.43;;
23181;SDS011;11759;51.282;6.642;2023-02-20T03:21:50;33.53;;;12.65;;
23181;SDS011;11759;51.282;6.642;2023-02-20T03:24:20;36.40;;;12.90;;
23181;SDS011;11759;51.282;6.642;2023-02-20T03:26:49;36.78;;;13.32;;
23181;SDS011;11759;51.282;6.642;2023-02-20T03:29:20;39.58;;;12.30;;
23181;SDS011;11759;51.282;6.642;2023-02-20T03:31:51;31.42;;;11.55;;
23181;SDS011;11759;51.282;6.642;2023-02-20T03:35:41;31.45;;;11.25;;
23181;SDS011;11759;51.282;6.642;2023-02-20T03:38:30;34.33;;;12.10;;
23181;SDS011;11759;51.282;6.642;2023-02-20T03:41:17;31.60;;;11.00;;
23181;SDS011;11759;51.282;6.642;2023-02-20T03:44:03;33.60;;;12.02;;
23181;SDS011;11759;51.282;6.642;2023-02-20T03:46:31;30.42;;;11.02;;
23181;SDS011;11759;51.282;6.642;2023-02-20T03:49:03;35.42;;;11.00;;
23181;SDS011;11759;51.282;6.642;2023-02-20T03:51:31;33.33;;;10.73;;
23181;SDS011;11759;51.282;6.642;2023-02-20T03:54:07;29.15;;;10.80;;
23181;SDS011;11759;51.282;6.642;2023-02-20T03:56:36;27.20;;;10.82;;
23181;SDS011;11759;51.282;6.642;2023-02-20T03:59:14;25.63;;;9.80;;
23181;SDS011;11759;51.282;6.642;2023-02-20T04:01:44;37.50;;;11.48;;
23181;SDS011;11759;51.282;6.642;2023-02-20T04:04:13;24.20;;;10.52;;
23181;SDS011;11759;51.282;6.642;2023-02-20T04:06:45;25.08;;;10.13;;
23181;SDS011;11759;51.282;6.642;2023-02-20T04:09:16;26.35;;;8.85;;
23181;SDS011;11759;51.282;6.642;2023-02-20T04:11:50;27.35;;;9.55;;
23181;SDS011;11759;51.282;6.642;2023-02-20T04:14:20;24.35;;;8.35;;
23181;SDS011;11759;51.282;6.642;2023-02-20T04:19:19;28.35;;;10.02;;
23181;SDS011;11759;51.282;6.642;2023-02-20T04:21:50;30.20;;;10.00;;
23181;SDS011;11759;51.282;6.642;2023-02-20T04:27:21;17.90;;;8.55;;
23181;SDS011;11759;51.282;6.642;2023-02-20T04:29:55;28.23;;;8.13;;
23181;SDS011;11759;51.282;6.642;2023-02-20T04:32:22;18.90;;;7.75;;
23181;SDS011;11759;51.282;6.642;2023-02-20T04:34:50;30.73;;;8.15;;
23181;SDS011;11759;51.282;6.642;2023-02-20T04:37:18;24.73;;;8.23;;
23181;SDS011;11759;51.282;6.642;2023-02-20T04:39:50;28.35;;;9.10;;
23181;SDS011;11759;51.282;6.642;2023-02-20T04:42:17;24.10;;;8.23;;
23181;SDS011;11759;51.282;6.642;2023-02-20T04:44:44;20.17;;;8.23;;
23181;SDS011;11759;51.282;6.642;2023-02-20T04:47:13;27.27;;;7.20;;
23181;SDS011;11759;51.282;6.642;2023-02-20T04:49:42;23.58;;;7.60;;
23181;SDS011;11759;51.282;6.642;2023-02-20T04:52:11;19.33;;;7.78;;
23181;SDS011;11759;51.282;6.642;2023-02-20T04:54:38;24.00;;;7.65;;
23181;SDS011;11759;51.282;6.642;2023-02-20T04:57:05;21.08;;;7.72;;
23181;SDS011;11759;51.282;6.642;2023-02-20T04:59:32;21.63;;;7.53;;
23181;SDS011;11759;51.282;6.642;2023-02-20T05:02:03;12.48;;;6.85;;
23181;SDS011;11759;51.282;6.642;2023-02-20T05:04:29;20.92;;;7.10;;
23181;SDS011;11759;51.282;6.642;2023-02-20T05:06:56;30.83;;;6.78;;
23181;SDS011;11759;51.282;6.642;2023-02-20T05:09:23;18.70;;;7.45;;
23181;SDS011;11759;51.282;6.642;2023-02-20T05:11:50;24.80;;;8.05;;
23181;SDS011;11759;51.282;6.642;2023-02-20T05:14:19;20.92;;;6.55;;
23181;SDS011;11759;51.282;6.642;2023-02-20T05:16:46;35.38;;;7.95;;
23181;SDS011;11759;51.282;6.642;2023-02-20T05:19:14;19.00;;;6.60;;
23181;SDS011;11759;51.282;6.642;2023-02-20T05:21:41;28.65;;;7.75;;
23181;SDS011;11759;51.282;6.642;2023-02-20T05:24:28;22.15;;;7.63;;
23181;SDS011;11759;51.282;6.642;2023-02-20T05:26:55;28.48;;;9.25;;
23181;SDS011;11759;51.282;6.642;2023-02-20T05:29:22;22.20;;;9.02;;
23181;SDS011;11759;51.282;6.642;2023-02-20T05:31:52;23.13;;;8.73;;
23181;SDS011;11759;51.282;6.642;2023-02-20T05:34:19;23.92;;;8.95;;
23181;SDS011;11759;51.282;6.642;2023-02-20T05:36:51;29.45;;;8.60;;
23181;SDS011;11759;51.282;6.642;2023-02-20T05:39:21;32.67;;;9.88;;
23181;SDS011;11759;51.282;6.642;2023-02-20T05:41:48;23.38;;;8.95;;
23181;SDS011;11759;51.282;6.642;2023-02-20T05:44:18;20.08;;;8.95;;
23181;SDS011;11759;51.282;6.642;2023-02-20T05:46:45;16.20;;;6.88;;
23181;SDS011;11759;51.282;6.642;2023-02-20T05:49:12;24.27;;;9.25;;
23181;SDS011;11759;51.282;6.642;2023-02-20T05:51:38;28.15;;;10.43;;
23181;SDS011;11759;51.282;6.642;2023-02-20T05:54:05;30.77;;;10.50;;
23181;SDS011;11759;51.282;6.642;2023-02-20T05:56:31;27.58;;;11.23;;
23181;SDS011;11759;51.282;6.642;2023-02-20T05:58:59;23.42;;;10.57;;
23181;SDS011;11759;51.282;6.642;2023-02-20T06:01:27;26.63;;;10.90;;
23181;SDS011;11759;51.282;6.642;2023-02-20T06:03:55;28.55;;;11.73;;
23181;SDS011;11759;51.282;6.642;2023-02-20T06:06:22;31.92;;;10.63;;
23181;SDS011;11759;51.282;6.642;2023-02-20T06:08:49;26.92;;;11.48;;
23181;SDS011;11759;51.282;6.642;2023-02-20T06:11:22;25.42;;;11.05;;
23181;SDS011;11759;51.282;6.642;2023-02-20T06:13:48;30.45;;;12.20;;
23181;SDS011;11759;51.282;6.642;2023-02-20T06:16:20;31.55;;;11.88;;
23181;SDS011;11759;51.282;6.642;2023-02-20T06:18:48;29.58;;;12.07;;
23181;SDS011;11759;51.282;6.642;2023-02-20T06:21:15;27.45;;;13.45;;
23181;SDS011;11759;51.282;6.642;2023-02-20T06:23:42;30.08;;;11.93;;
23181;SDS011;11759;51.282;6.642;2023-02-20T06:26:11;26.05;;;13.52;;
23181;SDS011;11759;51.282;6.642;2023-02-20T06:28:39;32.92;;;12.85;;
23181;SDS011;11759;51.282;6.642;2023-02-20T06:31:06;28.63;;;12.48;;
23181;SDS011;11759;51.282;6.642;2023-02-20T06:33:33;23.30;;;11.45;;
23181;SDS011;11759;51.282;6.642;2023-02-20T06:36:00;30.25;;;11.27;;
23181;SDS011;11759;51.282;6.642;2023-02-20T06:38:27;26.48;;;11.98;;
23181;SDS011;11759;51.282;6.642;2023-02-20T06:40:53;27.40;;;13.18;;
23181;SDS011;11759;51.282;6.642;2023-02-20T06:43:20;31.45;;;13.23;;
23181;SDS011;11759;51.282;6.642;2023-02-20T06:50:52;41.17;;;14.65;;
23181;SDS011;11759;51.282;6.642;2023-02-20T06:53:22;33.72;;;13.23;;
23181;SDS011;11759;51.282;6.642;2023-02-20T06:55:48;30.15;;;13.30;;
23181;SDS011;11759;51.282;6.642;2023-02-20T06:58:15;36.45;;;13.85;;
23181;SDS011;11759;51.282;6.642;2023-02-20T07:00:41;22.65;;;12.35;;
23181;SDS011;11759;51.282;6.642;2023-02-20T07:03:08;28.02;;;13.07;;
23181;SDS011;11759;51.282;6.642;2023-02-20T07:05:35;34.72;;;14.15;;
23181;SDS011;11759;51.282;6.642;2023-02-20T07:08:01;31.95;;;16.35;;
23181;SDS011;11759;51.282;6.642;2023-02-20T07:10:28;29.85;;;14.02;;
23181;SDS011;11759;51.282;6.642;2023-02-20T07:12:54;33.92;;;13.27;;
23181;SDS011;11759;51.282;6.642;2023-02-20T07:15:22;29.98;;;13.55;;
23181;SDS011;11759;51.282;6.642;2023-02-20T07:17:48;26.73;;;14.43;;
23181;SDS011;11759;51.282;6.642;2023-02-20T07:20:15;36.03;;;14.98;;
23181;SDS011;11759;51.282;6.642;2023-02-20T07:23:00;45.05;;;14.85;;
23181;SDS011;11759;51.282;6.642;2023-02-20T07:25:26;38.47;;;14.80;;
23181;SDS011;11759;51.282;6.642;2023-02-20T07:27:53;36.90;;;13.85;;
23181;SDS011;11759;51.282;6.642;2023-02-20T07:30:19;30.15;;;14.68;;
23181;SDS011;11759;51.282;6.642;2023-02-20T07:32:46;34.40;;;14.38;;
23181;SDS011;11759;51.282;6.642;2023-02-20T07:35:13;27.70;;;12.75;;
23181;SDS011;11759;51.282;6.642;2023-02-20T07:37:40;31.58;;;15.15;;
23181;SDS011;11759;51.282;6.642;2023-02-20T07:40:08;35.83;;;13.82;;
23181;SDS011;11759;51.282;6.642;2023-02-20T07:42:36;34.08;;;13.85;;
23181;SDS011;11759;51.282;6.642;2023-02-20T07:45:12;30.33;;;12.40;;
23181;SDS011;11759;51.282;6.642;2023-02-20T07:47:38;36.92;;;12.95;;
23181;SDS011;11759;51.282;6.642;2023-02-20T07:50:05;31.10;;;14.60;;
23181;SDS011;11759;51.282;6.642;2023-02-20T07:52:32;28.02;;;13.40;;
23181;SDS011;11759;51.282;6.642;2023-02-20T07:54:59;30.67;;;13.82;;
23181;SDS011;11759;51.282;6.642;2023-02-20T07:57:26;37.80;;;15.13;;
23181;SDS011;11759;51.282;6.642;2023-02-20T07:59:52;30.67;;;13.20;;
23181;SDS011;11759;51.282;6.642;2023-02-20T08:02:19;34.30;;;13.40;;
23181;SDS011;11759;51.282;6.642;2023-02-20T08:04:46;29.73;;;13.63;;
23181;SDS011;11759;51.282;6.642;2023-02-20T08:07:12;30.27;;;12.77;;
23181;SDS011;11759;51.282;6.642;2023-02-20T08:09:40;27.67;;;12.10;;
23181;SDS011;11759;51.282;6.642;2023-02-20T08:12:06;23.48;;;12.20;;
23181;SDS011;11759;51.282;6.642;2023-02-20T08:14:33;30.75;;;13.98;;
23181;SDS011;11759;51.282;6.642;2023-02-20T08:17:00;29.88;;;12.52;;
23181;SDS011;11759;51.282;6.642;2023-02-20T08:19:26;32.35;;;13.27;;
23181;SDS011;11759;51.282;6.642;2023-02-20T08:21:53;27.27;;;11.55;;
23181;SDS011;11759;51.282;6.642;2023-02-20T08:24:19;30.05;;;13.88;;
23181;SDS011;11759;51.282;6.642;2023-02-20T08:26:46;26.80;;;13.25;;
23181;SDS011;11759;51.282;6.642;2023-02-20T08:29:14;30.77;;;13.40;;
23181;SDS011;11759;51.282;6.642;2023-02-20T08:31:41;30.10;;;12.73;;
23181;SDS011;11759;51.282;6.642;2023-02-20T08:34:08;35.00;;;12.70;;
23181;SDS011;11759;51.282;6.642;2023-02-20T08:36:35;31.10;;;11.68;;
23181;SDS011;11759;51.282;6.642;2023-02-20T08:39:02;31.83;;;11.57;;
23181;SDS011;11759;51.282;6.642;2023-02-20T08:41:29;26.67;;;12.45;;
23181;SDS011;11759;51.282;6.642;2023-02-20T08:43:55;29.17;;;12.50;;
23181;SDS011;11759;51.282;6.642;2023-02-20T08:46:22;27.20;;;11.27;;
23181;SDS011;11759;51.282;6.642;2023-02-20T08:48:48;27.50;;;12.70;;
23181;SDS011;11759;51.282;6.642;2023-02-20T08:51:19;32.35;;;12.27;;
23181;SDS011;11759;51.282;6.642;2023-02-20T08:53:46;23.48;;;10.70;;
23181;SDS011;11759;51.282;6.642;2023-02-20T08:56:16;26.20;;;12.70;;
23181;SDS011;11759;51.282;6.642;2023-02-20T08:58:43;27.63;;;11.57;;
23181;SDS011;11759;51.282;6.642;2023-02-20T09:01:10;27.77;;;11.60;;
23181;SDS011;11759;51.282;6.642;2023-02-20T09:03:36;26.23;;;12.25;;
23181;SDS011;11759;51.282;6.642;2023-02-20T09:06:07;24.15;;;12.00;;
23181;SDS011;11759;51.282;6.642;2023-02-20T09:08:34;33.33;;;13.25;;
23181;SDS011;11759;51.282;6.642;2023-02-20T09:11:00;32.85;;;10.77;;
23181;SDS011;11759;51.282;6.642;2023-02-20T09:13:34;26.50;;;11.48;;
23181;SDS011;11759;51.282;6.642;2023-02-20T09:16:00;31.65;;;10.85;;
23181;SDS011;11759;51.282;6.642;2023-02-20T09:18:27;23.02;;;11.30;;
23181;SDS011;11759;51.282;6.642;2023-02-20T09:20:53;27.13;;;11.38;;
23181;SDS011;11759;51.282;6.642;2023-02-20T09:23:20;28.45;;;10.48;;
23181;SDS011;11759;51.282;6.642;2023-02-20T09:25:49;36.10;;;12.63;;
23181;SDS011;11759;51.282;6.642;2023-02-20T09:28:16;26.83;;;13.57;;
23181;SDS011;11759;51.282;6.642;2023-02-20T09:30:43;27.30;;;12.05;;
23181;SDS011;11759;51.282;6.642;2023-02-20T09:33:10;23.92;;;12.15;;
23181;SDS011;11759;51.282;6.642;2023-02-20T09:35:37;33.10;;;11.27;;
23181;SDS011;11759;51.282;6.642;2023-02-20T09:38:03;25.73;;;10.43;;
23181;SDS011;11759;51.282;6.642;2023-02-20T09:40:32;29.55;;;12.57;;
23181;SDS011;11759;51.282;6.642;2023-02-20T09:45:50;29.05;;;10.38;;
23181;SDS011;11759;51.282;6.642;2023-02-20T09:48:34;29.65;;;13.68;;
23181;SDS011;11759;51.282;6.642;2023-02-20T09:51:18;20.92;;;10.07;;
23181;SDS011;11759;51.282;6.642;2023-02-20T09:54:01;23.15;;;11.40;;
23181;SDS011;11759;51.282;6.642;2023-02-20T09:56:32;22.73;;;10.05;;
23181;SDS011;11759;51.282;6.642;2023-02-20T09:59:09;25.27;;;11.35;;
23181;SDS011;11759;51.282;6.642;2023-02-20T10:01:41;27.13;;;11.30;;
23181;SDS011;11759;51.282;6.642;2023-02-20T10:04:16;24.52;;;10.63;;
23181;SDS011;11759;51.282;6.642;2023-02-20T10:06:49;24.35;;;10.43;;
23181;SDS011;11759;51.282;6.642;2023-02-20T10:09:17;24.77;;;10.30;;
23181;SDS011;11759;51.282;6.642;2023-02-20T10:11:45;30.58;;;10.43;;
23181;SDS011;11759;51.282;6.642;2023-02-20T10:14:38;23.50;;;10.75;;
23181;SDS011;11759;51.282;6.642;2023-02-20T10:17:18;23.73;;;10.32;;
23181;SDS011;11759;51.282;6.642;2023-02-20T10:19:50;21.38;;;10.63;;
23181;SDS011;11759;51.282;6.642;2023-02-20T10:22:28;33.20;;;11.57;;
23181;SDS011;11759;51.282;6.642;2023-02-20T10:27:38;20.52;;;9.95;;
23181;SDS011;11759;51.282;6.642;2023-02-20T10:30:12;29.77;;;11.23;;
23181;SDS011;11759;51.282;6.642;2023-02-20T10:32:45;23.05;;;11.77;;
23181;SDS011;11759;51.282;6.642;2023-02-20T10:35:25;30.42;;;13.50;;
23181;SDS011;11759;51.282;6.642;2023-02-20T10:38:18;25.30;;;11.95;;
23181;SDS011;11759;51.282;6.642;2023-02-20T10:40:48;18.77;;;8.95;;
23181;SDS011;11759;51.282;6.642;2023-02-20T10:46:05;33.65;;;11.90;;
23181;SDS011;11759;51.282;6.642;2023-02-20T10:48:38;27.17;;;11.25;;
23181;SDS011;11759;51.282;6.642;2023-02-20T10:51:07;20.70;;;9.75;;
23181;SDS011;11759;51.282;6.642;2023-02-20T10:53:39;20.38;;;11.45;;
23181;SDS011;11759;51.282;6.642;2023-02-20T11:01:13;26.95;;;10.70;;
23181;SDS011;11759;51.282;6.642;2023-02-20T11:06:33;20.85;;;10.23;;
23181;SDS011;11759;51.282;6.642;2023-02-20T11:09:02;37.13;;;12.00;;
23181;SDS011;11759;51.282;6.642;2023-02-20T11:11:32;27.90;;;11.60;;
23181;SDS011;11759;51.282;6.642;2023-02-20T11:14:07;24.90;;;10.93;;
23181;SDS011;11759;51.282;6.642;2023-02-20T11:16:53;26.00;;;12.05;;
23181;SDS011;11759;51.282;6.642;2023-02-20T11:22:08;26.17;;;11.52;;
23181;SDS011;11759;51.282;6.642;2023-02-20T11:24:35;27.63;;;11.77;;
23181;SDS011;11759;51.282;6.642;2023-02-20T11:27:07;32.53;;;11.82;;
23181;SDS011;11759;51.282;6.642;2023-02-20T11:32:13;24.73;;;11.23;;
23181;SDS011;11759;51.282;6.642;2023-02-20T11:34:43;29.15;;;12.23;;
23181;SDS011;11759;51.282;6.642;2023-02-20T11:37:10;23.00;;;11.50;;
23181;SDS011;11759;51.282;6.642;2023-02-20T11:39:37;27.73;;;13.35;;
23181;SDS011;11759;51.282;6.642;2023-02-20T11:42:09;25.13;;;11.90;;
23181;SDS011;11759;51.282;6.642;2023-02-20T11:44:38;32.90;;;13.50;;
23181;SDS011;11759;51.282;6.642;2023-02-20T11:47:23;26.52;;;10.80;;
23181;SDS011;11759;51.282;6.642;2023-02-20T11:50:07;30.92;;;11.45;;
23181;SDS011;11759;51.282;6.642;2023-02-20T11:55:23;25.65;;;11.38;;
23181;SDS011;11759;51.282;6.642;2023-02-20T11:57:53;21.93;;;8.70;;
23181;SDS011;11759;51.282;6.642;2023-02-20T12:00:21;24.52;;;11.50;;
23181;SDS011;11759;51.282;6.642;2023-02-20T12:05:38;34.05;;;12.90;;
23181;SDS011;11759;51.282;6.642;2023-02-20T12:11:18;28.48;;;11.82;;
23181;SDS011;11759;51.282;6.642;2023-02-20T12:13:48;34.88;;;12.82;;
23181;SDS011;11759;51.282;6.642;2023-02-20T12:24:37;33.42;;;12.25;;
23181;SDS011;11759;51.282;6.642;2023-02-20T12:35:36;31.80;;;11.57;;
23181;SDS011;11759;51.282;6.642;2023-02-20T12:38:17;31.23;;;11.93;;
23181;SDS011;11759;51.282;6.642;2023-02-20T12:46:11;34.17;;;13.95;;
23181;SDS011;11759;51.282;6.642;2023-02-20T12:51:37;26.85;;;11.27;;
23181;SDS011;11759;51.282;6.642;2023-02-20T12:56:55;30.08;;;12.70;;
23181;SDS011;11759;51.282;6.642;2023-02-20T13:05:08;26.77;;;12.20;;
23181;SDS011;11759;51.282;6.642;2023-02-20T13:07:53;29.63;;;12.73;;
23181;SDS011;11759;51.282;6.642;2023-02-20T13:10:24;30.83;;;11.98;;
23181;SDS011;11759;51.282;6.642;2023-02-20T13:12:53;27.60;;;10.90;;
23181;SDS011;11759;51.282;6.642;2023-02-20T13:20:47;26.83;;;10.93;;
23181;SDS011;11759;51.282;6.642;2023-02-20T13:25:44;28.02;;;10.63;;
23181;SDS011;11759;51.282;6.642;2023-02-20T13:30:38;33.17;;;11.93;;
23181;SDS011;11759;51.282;6.642;2023-02-20T13:33:17;23.38;;;10.82;;
23181;SDS011;11759;51.282;6.642;2023-02-20T13:38:17;26.20;;;12.15;;
23181;SDS011;11759;51.282;6.642;2023-02-20T13:40:45;28.60;;;11.20;;
23181;SDS011;11759;51.282;6.642;2023-02-20T13:43:30;24.20;;;9.90;;
23181;SDS011;11759;51.282;6.642;2023-02-20T13:53:53;24.77;;;12.43;;
23181;SDS011;11759;51.282;6.642;2023-02-20T13:56:25;23.95;;;10.52;;
23181;SDS011;11759;51.282;6.642;2023-02-20T13:59:07;31.13;;;12.70;;
23181;SDS011;11759;51.282;6.642;2023-02-20T14:01:52;27.98;;;12.30;;
23181;SDS011;11759;51.282;6.642;2023-02-20T14:04:20;27.27;;;13.32;;
23181;SDS011;11759;51.282;6.642;2023-02-20T14:06:48;34.58;;;13.40;;
23181;SDS011;11759;51.282;6.642;2023-02-20T14:09:25;32.90;;;14.30;;
23181;SDS011;11759;51.282;6.642;2023-02-20T14:12:11;27.92;;;13.27;;
23181;SDS011;11759;51.282;6.642;2023-02-20T14:14:42;31.48;;;13.30;;
23181;SDS011;11759;51.282;6.642;2023-02-20T14:17:14;34.20;;;12.38;;
23181;SDS011;11759;51.282;6.642;2023-02-20T14:19:43;34.22;;;14.20;;
23181;SDS011;11759;51.282;6.642;2023-02-20T14:25:13;38.35;;;17.30;;
23181;SDS011;11759;51.282;6.642;2023-02-20T14:27:47;34.50;;;14.60;;
23181;SDS011;11759;51.282;6.642;2023-02-20T14:30:20;40.95;;;16.15;;
23181;SDS011;11759;51.282;6.642;2023-02-20T14:32:52;35.38;;;14.52;;
23181;SDS011;11759;51.282;6.642;2023-02-20T14:38:22;37.72;;;15.63;;
23181;SDS011;11759;51.282;6.642;2023-02-20T14:40:56;37.78;;;14.85;;
23181;SDS011;11759;51.282;6.642;2023-02-20T14:43:26;32.70;;;15.52;;
23181;SDS011;11759;51.282;6.642;2023-02-20T14:46:03;35.60;;;15.05;;
23181;SDS011;11759;51.282;6.642;2023-02-20T14:48:39;35.78;;;15.63;;
23181;SDS011;11759;51.282;6.642;2023-02-20T14:51:12;29.08;;;14.30;;
23181;SDS011;11759;51.282;6.642;2023-02-20T14:53:39;46.13;;;16.45;;
23181;SDS011;11759;51.282;6.642;2023-02-20T14:56:14;34.50;;;15.13;;
23181;SDS011;11759;51.282;6.642;2023-02-20T14:58:44;41.95;;;16.23;;
23181;SDS011;11759;51.282;6.642;2023-02-20T15:04:03;34.22;;;15.10;;
23181;SDS011;11759;51.282;6.642;2023-02-20T15:06:33;34.75;;;15.25;;
23181;SDS011;11759;51.282;6.642;2023-02-20T15:09:01;38.75;;;15.13;;
23181;SDS011;11759;51.282;6.642;2023-02-20T15:11:49;38.07;;;14.23;;
23181;SDS011;11759;51.282;6.642;2023-02-20T15:14:18;46.45;;;16.45;;
23181;SDS011;11759;51.282;6.642;2023-02-20T15:17:04;37.55;;;14.02;;
23181;SDS011;11759;51.282;6.642;2023-02-20T15:19:46;29.83;;;14.10;;
23181;SDS011;11759;51.282;6.642;2023-02-20T15:22:24;38.22;;;16.00;;
23181;SDS011;11759;51.282;6.642;2023-02-20T15:24:51;41.42;;;18.67;;
23181;SDS011;11759;51.282;6.642;2023-02-20T15:27:18;39.70;;;16.58;;
23181;SDS011;11759;51.282;6.642;2023-02-20T15:32:42;31.45;;;14.10;;
23181;SDS011;11759;51.282;6.642;2023-02-20T15:35:12;34.58;;;15.73;;
23181;SDS011;11759;51.282;6.642;2023-02-20T15:37:41;42.92;;;14.98;;
23181;SDS011;11759;51.282;6.642;2023-02-20T15:40:17;34.15;;;15.05;;
23181;SDS011;11759;51.282;6.642;2023-02-20T15:42:46;33.92;;;13.95;;
23181;SDS011;11759;51.282;6.642;2023-02-20T15:45:13;38.83;;;15.40;;
23181;SDS011;11759;51.282;6.642;2023-02-20T15:47:40;38.75;;;16.92;;
23181;SDS011;11759;51.282;6.642;2023-02-20T15:50:07;36.22;;;14.45;;
23181;SDS011;11759;51.282;6.642;2023-02-20T15:52:34;37.33;;;14.93;;
23181;SDS011;11759;51.282;6.642;2023-02-20T15:55:00;34.28;;;14.18;;
23181;SDS011;11759;51.282;6.642;2023-02-20T15:57:27;31.67;;;13.43;;
23181;SDS011;11759;51.282;6.642;2023-02-20T15:59:54;28.05;;;12.20;;
23181;SDS011;11759;51.282;6.642;2023-02-20T16:02:21;29.55;;;12.68;;
23181;SDS011;11759;51.282;6.642;2023-02-20T16:04:50;31.35;;;13.63;;
23181;SDS011;11759;51.282;6.642;2023-02-20T16:07:17;29.75;;;13.98;;
23181;SDS011;11759;51.282;6.642;2023-02-20T16:09:45;26.75;;;12.75;;
23181;SDS011;11759;51.282;6.642;2023-02-20T16:12:23;30.02;;;12.05;;
23181;SDS011;11759;51.282;6.642;2023-02-20T16:17:21;27.70;;;12.93;;
23181;SDS011;11759;51.282;6.642;2023-02-20T16:19:49;29.15;;;12.75;;
23181;SDS011;11759;51.282;6.642;2023-02-20T16:22:16;30.40;;;13.15;;
23181;SDS011;11759;51.282;6.642;2023-02-20T16:24:43;33.13;;;13.32;;
23181;SDS011;11759;51.282;6.642;2023-02-20T16:27:14;30.90;;;12.90;;
23181;SDS011;11759;51.282;6.642;2023-02-20T16:29:52;28.70;;;13.82;;
23181;SDS011;11759;51.282;6.642;2023-02-20T16:32:21;30.75;;;14.02;;
23181;SDS011;11759;51.282;6.642;2023-02-20T16:34:49;35.83;;;14.07;;
23181;SDS011;11759;51.282;6.642;2023-02-20T16:37:17;30.00;;;13.85;;
23181;SDS011;11759;51.282;6.642;2023-02-20T16:39:44;25.70;;;11.65;;
23181;SDS011;11759;51.282;6.642;2023-02-20T16:42:28;26.52;;;12.35;;
23181;SDS011;11759;51.282;6.642;2023-02-20T16:44:58;22.60;;;10.00;;
23181;SDS011;11759;51.282;6.642;2023-02-20T16:47:27;35.22;;;12.63;;
23181;SDS011;11759;51.282;6.642;2023-02-20T16:49:56;33.40;;;12.88;;
23181;SDS011;11759;51.282;6.642;2023-02-20T16:52:27;28.70;;;12.63;;
23181;SDS011;11759;51.282;6.642;2023-02-20T16:54:56;36.33;;;12.52;;
23181;SDS011;11759;51.282;6.642;2023-02-20T16:57:23;23.73;;;11.45;;